Weather observations for the past three days for
Appleton Municipal Airport
Metric (Imperial)
Date Time (cdt) Wind (kph) Vis. (km) Weather Sky Cond. Temperature (ºC) Relative Humidity Wind Chill (°C) Heat Index (°C) Pressure Precipitation (cm)
Air Dwpt 6 hour altimeter (cm) sea level (mb) 1 hr 3 hr 6 hr
Max. Min.
06 02:15 NW 15 16.09 Overcast OVC050 3.2 -3.2 63% -0 76.17 0.0
06 01:55 NW 13 16.09 Overcast OVC055 2.4 -2.7 69% -1 76.17 0.0
06 01:35 NW 9 16.09 Overcast OVC055 1.3 -3.2 72% -1 76.15 0.0
06 01:15 NW 11 16.09 Overcast OVC055 0.6 -3.9 72% -2 76.17 0.0
06 00:55 NW 15 16.09 Mostly Cloudy BKN055 0.6 -4.3 7.3 0.4 70% -3 76.17 0.0
06 00:35 NW 11 16.09 Partly Cloudy SCT055 1 -4.3 68% -2 76.15 0.0
06 00:15 NW 13 16.09 Fair CLR 1.2 -4.4 67% -2 76.15 0.0
05 23:55 NW 11 16.09 Fair CLR 1.5 -4.4 65% -1 76.12 0.0
05 23:35 N 13 16.09 Partly Cloudy SCT070 2 -4.5 62% -1 76.15 0.0
05 23:15 NW 15 16.09 Overcast OVC070 3.3 -4 59% 0 76.15 0.0
05 22:55 N 13 16.09 Overcast OVC070 3.7 -3.6 59% 1 76.12 0.0
05 22:35 N 9 16.09 Overcast OVC070 3.5 -3.7 60% 1 76.1 0.0
05 22:15 N 11 16.09 Overcast OVC070 3.4 -4 59% 1 76.1 0.0
05 21:55 N 13 14.48 Mostly Cloudy BKN075 2.8 -4.2 60% -0 76.07 0.0
05 21:35 N 15 14.48 Mostly Cloudy BKN075 3.4 -4.3 57% 0 76.07 0.0
05 21:15 N 11 12.87 Overcast OVC075 3.5 -4.2 57% 1 76.05 0.0
05 20:55 N 17 9.66 Overcast with Haze OVC075 4.6 -5 50% 1 76.05 0.0
05 20:35 N 17 12.87 Mostly Cloudy FEW060 BKN075 5 -5.3 48% 2 76.02 0.0
05 20:15 N 20 12.87 Partly Cloudy SCT065 5.9 -5.1 45% 3 76.02 0.0
05 19:55 N 24 14.48 Partly Cloudy SCT070 6.4 -5.5 43% 3 76 0.0
05 19:35 N 28 14.48 Overcast OVC065 7.2 -5.5 40% 3 76 0.0
05 19:15 N 30 12.87 Mostly Cloudy BKN065 7.2 -5.2 41% 3 76 0.0
05 18:55 NW 26 G 39 14.48 Mostly Cloudy BKN065 8.2 -5.3 10.3 7.7 38% 5 75.97 0.0
05 18:35 NW 28 16.09 Mostly Cloudy FEW060 BKN075 7.8 -5.1 40% 4 75.97 0.0
05 18:15 N 28 16.09 Overcast OVC070 8.6 -5.1 38% 5 75.97 0.0
05 17:55 NW 30 12.87 Overcast OVC060 8 -5 40% 4 75.97 0.0
05 17:35 N 31 14.48 Overcast OVC065 8 -5.3 39% 4 75.95 0.0
05 17:15 N 24 14.48 Overcast BKN060 OVC070 8.1 -5.1 39% 5 75.95 0.0
05 16:55 NW 20 14.48 Overcast OVC060 8.4 -4.8 39% 6 75.95 0.0
05 16:35 N 28 16.09 Overcast OVC060 8.3 -5.2 38% 5 75.95 0.0
05 16:15 N 22 16.09 Overcast OVC065 8.5 -4.8 39% 6 75.95 0.0
05 15:55 NW 30 14.48 Overcast OVC065 9 -5.3 36% 6 75.95 0.0
05 15:35 NW 33 G 43 16.09 Overcast and Breezy OVC065 9.4 -5.2 36% 6 75.92 0.0
05 15:15 NW 30 G 39 14.48 Overcast OVC060 10 -4.8 35% 7 75.92 0.0
05 14:55 NW 28 16.09 Overcast BKN060 OVC075 9.1 -5.5 35% 6 75.92 0.0
05 14:35 NW 31 G 41 16.09 Overcast BKN060 OVC075 9.2 -5.6 35% 6 75.92 0.0
05 14:15 NW 35 G 48 16.09 Overcast and Breezy OVC065 9.2 -5.6 35% 6 75.92 0.0
05 13:55 NW 31 G 46 16.09 Overcast OVC060 8.8 -6 35% 5 75.92 0.0
05 13:35 NW 30 16.09 Overcast OVC065 9.2 -5.9 34% 6 75.92 0.0
05 13:15 NW 30 G 39 16.09 Overcast OVC070 9.3 -6.2 33% 6 75.92 0.0
05 12:55 NW 31 16.09 Overcast OVC070 9.7 -6.2 9.7 -0.3 32% 6 75.9 0.0
05 12:35 NW 28 16.09 Overcast OVC065 9 -6 34% 6 75.92 0.0
05 12:15 NW 33 G 43 16.09 Overcast and Breezy OVC060 8.9 -5.7 35% 5 75.92 0.0
05 11:55 NW 30 G 43 16.09 Overcast OVC060 8.7 -5.9 35% 5 75.9 0.0
05 11:35 NW 24 16.09 Overcast OVC065 8.5 -6.1 35% 5 75.9 0.0
05 11:15 NW 33 G 43 14.48 Overcast and Breezy OVC060 8.6 -6 35% 5 75.9 0.0
05 10:55 NW 30 G 41 16.09 Mostly Cloudy BKN060 8.5 -6.3 35% 5 75.9 0.0
05 10:35 NW 30 16.09 Partly Cloudy SCT055 9.1 -6 34% 6 75.87 0.0
05 10:15 NW 28 G 44 16.09 Partly Cloudy FEW049 SCT055 8.6 -5.9 36% 5 75.9 0.0
05 09:55 NW 30 G 39 16.09 A Few Clouds FEW039 7.7 -4.8 41% 4 75.9 0.0
05 09:35 NW 28 16.09 Fair CLR 7.5 -2.8 48% 4 75.87 0.0
05 09:15 W 24 14.48 Fair CLR 6.8 -2.1 53% 3 75.87 0.0
05 08:55 NW 15 14.48 Fair CLR 5.7 -1.2 62% 3 75.84 0.0
05 08:35 NW 17 14.48 Fair CLR 5.1 -1.6 62% 2 75.84 0.0
05 08:15 NW 11 14.48 Fair CLR 4.4 -0.6 70% 2 75.82 0.0
05 07:55 W 7 12.87 Fair CLR 3.4 -0.6 75% 2 75.82 0.0
05 07:35 W 7 11.27 Fair CLR 2.5 -0.5 81% 1 75.79 0.0
05 07:15 Calm 12.87 Fair CLR 1.2 -1.1 85% 75.77 0.0
05 06:55 W 7 11.27 Fair CLR -0.7 -2.7 1.5 -2.1 87% -3 75.74 0.0
05 06:35 W 7 11.27 Fair CLR -1.3 -3.1 88% -4 75.74 0.0
05 05:55 NW 13 12.87 Partly Cloudy FEW060 SCT080 -0.9 -2.7 88% -5 75.72 0.0
05 05:35 NW 13 12.87 A Few Clouds FEW080 -0.2 -2.4 85% -4 75.72 0.0
05 05:15 NW 13 12.87 Fair CLR -1.3 -3.1 88% -5 75.72 0.0
05 04:55 NW 9 12.87 Fair CLR -2.1 -3.9 88% -5 75.72 0.0
05 04:35 NW 11 12.87 Fair CLR -1.5 -3.6 86% -5 75.69 0.0
05 04:15 W 11 12.87 Fair CLR -0.8 -3.3 83% -4 75.69 0.0
05 03:55 W 9 14.48 Partly Cloudy SCT070 -0.7 -3 85% -4 75.69 0.0
05 03:35 W 7 14.48 A Few Clouds FEW075 0.1 -2.6 82% -2 75.67 0.0
05 03:15 NW 11 14.48 A Few Clouds FEW070 0.1 -3.3 78% -3 75.67 0.0
05 02:55 NW 11 12.87 Fair CLR -0.7 -3.7 80% -4 75.67 0.0
05 02:35 NW 13 14.48 Fair CLR -0.3 -3.5 79% -4 75.67 0.0
05 02:15 NW 11 14.48 Fair CLR -0.5 -3.6 80% -4 75.67 0.0
05 01:55 NW 7 14.48 Fair CLR 1 -3.2 74% -1 75.67 0.0
05 01:35 NW 9 14.48 Fair CLR 1 -3 75% -2 75.67 0.0
05 01:15 NW 9 14.48 Fair CLR 1 -2.7 77% -2 75.67 0.0
05 00:55 W 11 14.48 Fair CLR 2.4 -2.2 10.9 1.3 72% -0 75.64 0.0
05 00:35 W 11 14.48 A Few Clouds FEW065 1.7 -2.8 72% -1 75.64 0.0
05 00:15 W 9 14.48 Fair CLR 1.3 -2.9 74% -1 75.62 0.0
04 23:55 W 9 14.48 Fair CLR 2.2 -2.6 71% -0 75.62 0.0
04 23:35 W 9 14.48 Fair CLR 2.4 -2.6 70% 0 75.62 0.0
04 23:15 NW 11 14.48 Fair CLR 3.3 -2.6 66% 1 75.59 0.0
04 22:55 NW 15 16.09 Fair CLR 4.5 -2 63% 2 75.62 0.0
04 22:35 NW 15 14.48 A Few Clouds FEW085 5.1 -2.2 60% 2 75.59 0.0
04 22:15 NW 15 16.09 Partly Cloudy SCT085 5.3 -2.2 59% 2 75.59 0.0
04 21:55 NW 13 16.09 A Few Clouds FEW090 6 -2.2 56% 4 75.57 0.0
04 21:35 NW 17 16.09 Partly Cloudy SCT085 7.2 -2.6 50% 5 75.57 0.0
04 21:15 NW 19 14.48 Overcast OVC085 7.8 -2.8 47% 5 75.54 0.0
04 20:55 NW 22 14.48 Overcast FEW060 OVC085 8.3 -3.3 44% 5 75.51 0.0
04 20:35 NW 22 14.48 Mostly Cloudy BKN080 8.7 -3.5 42% 6 75.51 0.0
04 20:15 NW 20 16.09 A Few Clouds FEW080 9 -3.6 41% 6 75.49 0.0
04 19:55 NW 31 16.09 Fair CLR 9.9 -3.9 38% 7 75.46 0.0
04 19:35 NW 37 G 46 16.09 Fair and Breezy CLR 10.3 -4.1 36% 75.46 0.0
04 19:15 NW 35 G 50 14.48 A Few Clouds and Breezy FEW070 10.7 -4.3 35% 75.46 0.0
04 18:55 NW 44 G 61 16.09 Mostly Cloudy and Windy BKN070 10.9 -4.9 13.8 10.5 33% 75.46 0.0
04 18:35 NW 37 G 54 16.09 Mostly Cloudy and Breezy SCT070 BKN220 10.7 -4.3 35% 75.46 0.0
04 18:15 NW 39 G 52 16.09 Overcast and Breezy FEW065 OVC220 10.7 -4.7 34% 75.46 0.0
04 17:55 NW 37 G 54 16.09 Mostly Cloudy and Breezy BKN065 BKN210 10.6 -4.5 35% 75.46 0.0
04 17:35 NW 35 G 57 16.09 Mostly Cloudy and Breezy BKN065 BKN210 11 -4.7 33% 75.46 0.0
04 17:15 NW 48 G 63 16.09 Mostly Cloudy and Windy BKN065 11.1 -5.1 32% 75.44 0.0
04 16:55 NW 48 G 57 16.09 Mostly Cloudy and Windy BKN065 11.7 -4.3 33% 75.44 0.0
04 16:35 NW 44 G 56 16.09 Mostly Cloudy and Windy BKN065 12.4 -4.1 32% 75.41 0.0
04 16:15 NW 43 G 59 16.09 Mostly Cloudy and Windy BKN065 11.7 -4.2 33% 75.39 0.0
04 15:55 NW 44 G 59 16.09 Mostly Cloudy and Windy BKN060 11.8 -3.6 34% 75.39 0.0
04 15:35 NW 46 G 57 16.09 Mostly Cloudy and Windy BKN060 11.9 -3.2 35% 75.39 0.0
04 15:15 NW 44 G 65 16.09 Mostly Cloudy and Windy BKN055 12.1 -3.2 35% 75.36 0.0
04 14:55 NW 43 G 54 16.09 Overcast and Windy OVC055 11.8 -2.3 38% 75.36 0.0
04 14:35 NW 50 G 59 16.09 Overcast and Windy OVC050 12.3 -2.1 37% 75.36 0.0
04 14:15 NW 44 G 59 16.09 Overcast and Windy OVC050 11.6 -1.5 40% 75.36 0.0
04 13:55 NW 43 G 59 16.09 Overcast and Windy OVC050 12 -1.1 41% 75.34 0.0
04 13:35 NW 52 G 61 16.09 Overcast and Windy OVC050 12.6 -1.1 39% 75.31 0.0
04 13:15 NW 46 G 61 16.09 Mostly Cloudy and Windy BKN050 13 -0.6 39% 75.29 0.0
04 12:55 NW 46 G 59 16.09 A Few Clouds and Windy FEW049 13.8 -0.5 13.8 10.1 38% 75.23 0.0
04 12:35 NW 43 G 57 16.09 Mostly Cloudy and Windy SCT048 BKN140 13.4 -0.2 40% 75.23 0.0
04 12:15 NW 41 G 63 16.09 Mostly Cloudy and Breezy FEW048 BKN140 13.2 -0.6 39% 75.26 0.0
04 11:55 NW 41 G 56 16.09 Partly Cloudy and Breezy SCT140 13.1 0 41% 75.23 0.0
04 11:35 NW 46 G 54 16.09 Fair and Windy CLR 12.9 -0.4 40% 75.21 0.0
04 11:15 NW 44 G 57 16.09 A Few Clouds and Windy FEW110 12.7 -0.2 41% 75.18 0.0
04 10:55 NW 43 G 56 16.09 Mostly Cloudy and Windy SCT095 BKN120 12.6 -0.2 42% 75.18 0.0
04 10:35 NW 43 G 54 16.09 Overcast and Windy OVC100 11.7 -0.6 43% 75.16 0.0
04 10:15 NW 44 G 63 16.09 Mostly Cloudy and Windy BKN100 BKN120 12.9 -0.2 41% 75.13 0.0
04 09:55 NW 48 G 59 16.09 Partly Cloudy and Windy FEW120 SCT200 12.8 -0.5 40% 75.13 0.0
04 09:35 NW 44 G 56 16.09 Mostly Cloudy and Windy BKN120 12.9 0.8 44% 75.13 0.0
04 09:15 NW 39 G 54 16.09 Mostly Cloudy and Breezy BKN120 12.6 1.6 47% 75.08 0.0
04 08:55 NW 48 G 59 14.48 Overcast and Windy BKN120 OVC140 12.3 2.2 50% 75.06 0.0
04 08:35 NW 44 G 52 16.09 Overcast and Windy OVC130 12.6 3 52% 75.06 0.0
04 08:15 NW 39 G 46 16.09 Overcast and Breezy OVC130 12.4 3.4 54% 75.06 0.0
04 07:55 NW 22 16.09 Mostly Cloudy BKN130 11 3.9 62% 75.03 0.0
04 07:35 W 26 14.48 Mostly Cloudy BKN140 10.6 3.9 64% 75.03 0.0
04 07:15 W 22 14.48 Mostly Cloudy BKN150 10.3 4.1 66% 75.01 0.0
04 06:55 W 13 12.87 A Few Clouds FEW150 10 4.4 16.6 9.9 68% 8 74.96 0.0
04 06:35 NW 19 14.48 Fair CLR 10.1 4 66% 74.96 0.0
04 06:15 NW 19 14.48 Fair CLR 10.1 3.8 65% 74.93 0.0
04 05:55 NW 19 14.48 Fair CLR 10.3 3.9 65% 74.9 0.0
04 05:35 NW 20 16.09 Fair CLR 10.5 3.8 64% 74.88 0.0
04 05:15 N 26 14.48 A Few Clouds FEW190 11.2 3.9 61% 74.85 0.0
04 04:55 N 33 G 59 16.09 A Few Clouds and Breezy FEW130 12.5 3.8 56% 74.83 0.0
04 04:35 W 39 16.09 Partly Cloudy and Breezy SCT130 16.3 3 41% 74.8 0.0
04 04:15 W 35 16.09 Overcast and Breezy SCT110 OVC140 15.8 1.9 39% 74.78 0.0
04 03:55 SW 39 16.09 Overcast and Breezy SCT130 OVC210 16.4 1.7 37% 74.7 0.0
04 03:35 SW 31 G 43 16.09 Mostly Cloudy BKN210 16.1 1.6 38% 74.7 0.0
04 03:15 SW 28 16.09 A Few Clouds FEW210 15.3 1.6 40% 74.73 0.0
04 02:55 SW 28 16.09 Partly Cloudy SCT220 14.9 1 39% 74.75 0.0
04 02:35 SW 28 16.09 Mostly Cloudy BKN220 14.9 0.9 39% 74.78 0.0
04 02:15 SW 24 16.09 A Few Clouds FEW220 14.5 0.9 40% 74.8 0.0
04 01:55 SW 22 16.09 Fair CLR 13.9 0.5 40% 74.83 0.0
04 01:35 SW 22 16.09 Fair CLR 13.8 -0.2 38% 74.85 0.0
04 01:15 SW 24 16.09 Fair CLR 14.1 -0.8 36% 74.88 0.0
04 00:55 SW 24 16.09 Fair CLR 14.2 -1.2 21.1 13.6 35% 74.93 0.0
04 00:35 SW 26 16.09 Fair CLR 14.5 -1.6 33% 74.96 0.0
04 00:15 SW 19 16.09 Fair CLR 14.1 -0.8 36% 74.98 0.0
03 23:55 SW 19 16.09 A Few Clouds FEW210 14 -0.5 37% 75.03 0.0
03 23:35 SW 19 16.09 A Few Clouds FEW210 14.5 -0.8 35% 75.06 0.0
03 23:15 SW 17 16.09 Fair CLR 14.4 -0.8 35% 75.08 0.0
03 22:55 SW 19 16.09 Fair CLR 14.8 -0.3 36% 75.11 0.0
03 22:35 SW 19 16.09 A Few Clouds FEW340 15.2 -0.5 34% 75.13 0.0
03 22:15 SW 20 16.09 A Few Clouds FEW340 15.4 -0.6 34% 75.16 0.0
03 21:55 SW 17 16.09 Fair CLR 16 -0.7 32% 75.21 0.0
03 21:35 SW 17 16.09 Fair CLR 16 -0.7 32% 75.21 0.0
03 21:15 SW 13 16.09 Fair CLR 15.1 0.7 38% 75.23 0.0
03 20:55 SW 11 16.09 Fair CLR 16.8 0.4 33% 75.26 0.0
03 20:35 SW 13 16.09 Fair CLR 16.4 0.6 34% 75.26 0.0
03 20:15 W 13 16.09 Fair CLR 16.3 1 36% 75.29 0.0
03 19:55 W 13 16.09 Fair CLR 19.5 -0.8 26% 75.31 0.0
03 19:35 W 19 16.09 Fair CLR 20.4 -1.2 23% 75.31 0.0
03 19:15 W 24 16.09 Fair CLR 20.4 -2 22% 75.34 0.0
03 18:55 W 26 16.09 Fair CLR 20.9 -2.7 21.8 18.6 20% 75.36 0.0
03 18:35 W 30 G 35 16.09 Fair CLR 21.7 -2.4 20% 75.36 0.0
03 18:15 W 24 G 31 16.09 A Few Clouds FEW330 21.7 -1.7 21% 75.36 0.0
03 17:55 W 26 16.09 Fair CLR 21.7 -1.5 21% 75.39 0.0
03 17:35 W 19 16.09 Fair CLR 21.6 -1.3 22% 75.41 0.0
03 17:15 NW 24 16.09 Fair CLR 21.5 -1.4 22% 75.44 0.0
03 16:55 NW 22 G 31 16.09 Fair CLR 21.6 -1.3 22% 75.46 0.0
03 16:35 NW 22 16.09 Fair CLR 21.3 -1.2 22% 75.46 0.0
03 16:15 NW 24 G 33 16.09 Fair CLR 21.2 -1.5 22% 75.49 0.0
03 15:55 NW 15 16.09 Fair CLR 21.2 -0.4 24% 75.51 0.0
03 15:35 NW 20 16.09 Fair CLR 21 -0.3 24% 75.54 0.0
03 15:15 NW 22 16.09 Fair CLR 20.4 -0.7 24% 75.57 0.0
03 14:55 W 22 16.09 Fair CLR 19.9 -0.3 26% 75.62 0.0
03 14:35 NW 20 G 33 16.09 Fair CLR 19.8 0.2 27% 75.62 0.0
03 14:15 NW 24 G 31 16.09 Fair CLR 19.6 0.5 28% 75.64 0.0
03 13:55 NW 20 16.09 Fair CLR 19.3 0.9 29% 75.67 0.0
03 13:35 NW 30 16.09 Fair CLR 19.3 1.1 30% 75.69 0.0
03 13:15 N 26 16.09 Fair CLR 19 0.9 30% 75.72 0.0
03 12:55 NW 31 G 39 16.09 Fair CLR 18.7 0.8 18.8 7.5 30% 75.74 0.0
03 12:35 NW 28 16.09 Fair CLR 18.6 0.8 30% 75.74 0.0
03 12:15 NW 30 16.09 Fair CLR 18 0.8 32% 75.77 0.0
03 11:55 NW 24 G 33 16.09 Fair CLR 17.8 0.7 32% 75.77 0.0
03 11:35 N 24 16.09 Fair CLR 17.5 0.5 32% 75.77 0.0
03 11:15 N 24 16.09 Fair CLR 16.6 0.9 35% 75.79 0.0
03 10:55 NW 26 16.09 Fair CLR 15.9 1.7 39% 75.79 0.0
03 10:35 NW 22 16.09 Fair CLR 15.3 2.5 42% 75.79 0.0
03 10:15 NW 28 16.09 Fair CLR 14.6 2.7 45% 75.79 0.0
03 09:55 NW 26 16.09 Fair CLR 13.4 2.6 48% 75.79 0.0
03 09:35 NW 26 16.09 Fair CLR 13 2.9 51% 75.79 0.0
03 09:15 NW 30 16.09 Fair CLR 12.2 2.6 52% 75.79 0.0
03 08:55 NW 30 16.09 Fair CLR 11.3 2.7 56% 75.77 0.0
03 08:35 NW 30 16.09 Fair CLR 10.6 2.8 59% 75.77 0.0
03 08:15 NW 24 16.09 Fair CLR 9.8 3.1 63% 7 75.77 0.0
03 07:55 NW 28 14.48 Fair CLR 9.1 3.2 67% 6 75.74 0.0
03 07:35 NW 28 16.09 Fair CLR 8.5 3.2 70% 5 75.72 0.0
03 07:15 NW 22 14.48 Fair CLR 7.8 3.4 74% 5 75.69 0.0
03 06:55 NW 20 14.48 Fair CLR 7.6 3.3 12.4 7.1 74% 5 75.67 0.0
03 06:35 N 24 16.09 Fair CLR 7.2 3.1 75% 4 75.64 0.0
03 06:15 NW 24 14.48 Fair CLR 7.2 3.3 77% 4 75.62 0.0
03 05:55 NW 30 16.09 Fair CLR 7.5 3.3 75% 4 75.59 0.0
03 05:35 N 31 16.09 Fair CLR 7.5 3.1 74% 4 75.59 0.0
03 05:15 NW 26 16.09 Fair CLR 7.7 3.3 74% 4 75.59 0.0
03 04:55 NW 30 16.09 Fair CLR 8.3 3.2 71% 5 75.57 0.0
03 04:35 NW 35 16.09 Fair and Breezy CLR 8.7 3.2 69% 5 75.57 0.0
03 04:15 NW 33 16.09 Fair and Breezy CLR 9.2 2.9 65% 6 75.54 0.0
03 03:55 NW 31 16.09 Fair CLR 9.6 2.6 62% 6 75.54 0.0
03 03:35 NW 31 16.09 Fair CLR 9.8 2.4 60% 7 75.51 0.0
03 03:15 NW 30 16.09 Fair CLR 10.4 2.1 57% 75.49 0.0
03 02:55 NW 30 16.09 Fair CLR 10.6 2.2 56% 75.49 0.0
Date Time (cdt) Wind (kph) Vis. (km) Weather Sky Cond. Air Dwpt Max. Min. Relative Humidity Wind Chill (°C) Heat Index (°C) altimeter (cm) sea level (mb) 1 hr 3 hr 6 hr
6 hour
Temperature (ºC) Pressure Precipitation (cm)